الصفحة الرئيسية
METAR-TAF:

METAR-TAF

مطار :

Mae Hong Son, تايلاند

دائرة عرض: 19-18N, خط طول: 097-50E, ارتفاع: 267 متر

مراقبة الطقس الحالي

تاريخ ووقت الإصدار 7ساعات و 1 دقيقة قبل الساعة 11:00UTC
رياح هادئة
درجة الحرارة 27°درجة مئوية
الرطوبة 79%
ضغط 1010 hPa
الرؤية 10 كم أو أكثر
غيوم قليلة على ارتفاع 2000 قدم, مزنة ركامية.
غيوم مفككة على ارتفاع 2500 قدم
زخات في الجوار

METAR: VTCH 051100Z 00000KT 9999 VCSH FEW020CB BKN025 27/23 Q1010 NOSIG

زمن: 01:01 (18:01 UTC)

توقعات

تاريخ ووقت الإصدار 1ساعة و 1 دقيقة قبل الساعة 17:00UTC
التوقعات صالحة من05 الساعة 18 UTC إلى 06 الساعة 18 UTC
ريح 5 عقدة من الجنوب/الجنوب الشرقي
الرؤية 10 كم أو أكثر
غيوم متفرقة على ارتفاع 2500 قدم
مؤقت
من 06 الساعة 08 UTC إلى 06 الساعة 14 UTC
غيوم قليلة على ارتفاع 2000 قدم, مزنة ركامية.
غيوم مفككة على ارتفاع 2500 قدم
عاصفة رعدية, مطر خفيف

TAF: VTCH 051700Z 0518/0618 16005KT 9999 SCT025 TEMPO 0608/0614 -TSRA FEW020CB BKN025

أرصاد الطقس والتوقعات من أكثر من 4000 مطار (تقارير الطقس للمطار METAR والتنبؤ بالطقس بالمطارTAF).

المحطات المتاحة هي النقط الصفراء والحمراء على الخريطة.

حرك المؤشر فوق النقطة لمعرفة اسم المحطة.

ثم انقر لمعرفة أرصاد وتوقعات الطقس.

لتغيير الخارطة: اضغط على الأزرار الخضراء مع رمز الصليب الأسود للتكبير. على الزر الأخضر مع شرطة للتصغير، أو على الأسهم الخضراء للخرائط المجاورة.


METAR-TAF: